Observations for CRANFIELD, United Kingdom (EGTC)

EGTC 271650Z 07005KT 4000 -SHRA BKN006 15/15 Q1004  
EGTC 271620Z 09009KT 8000 -SHRA FEW008 BKN038 16/15 Q1005   
EGTC 271520Z 09011KT 9000 -SHRA FEW012 BKN038 16/14 Q1005   
EGTC 271450Z 08011KT 9999 FEW012 BKN038 16/14 Q1006 
EGTC 271420Z 09011KT 9999 FEW012 BKN038 16/14 Q1006 
EGTC 271350Z 06011KT 9999 FEW012 BKN038 16/14 Q1006 
EGTC 271320Z 07011KT 9999 SCT013 BKN038 16/14 Q1006 
EGTC 271250Z 08012KT 9999 FEW012 BKN042 17/14 Q1006 
EGTC 271220Z 07013KT 9999 FEW012 BKN042 17/14 Q1006 
EGTC 271150Z 06013KT 9999 FEW012 OVC038 17/14 Q1007 
EGTC 271120Z 06009KT 9999 FEW015 BKN038 15/13 Q1007 
EGTC 271050Z 07008KT 9999 BKN038 15/13 Q1007
EGTC 271020Z 12006KT 8000 -SHRA FEW010 BKN038 17/13 Q1007   
EGTC 270950Z 11009KT 9999 BKN038 18/12 Q1007
EGTC 270920Z 12010KT 9999 FEW039 18/11 Q1007
EGTC 270850Z 11009KT CAVOK 19/12 Q1007  
EGTC 270820Z 10010KT CAVOK 17/13 Q1008  
EGTC 270750Z 11013KT 9999 FEW042 16/12 Q1008
EGTC 270720Z 09010KT 9999 SCT045 16/12 Q1008
EGTC 270650Z 09008KT 9999 BKN043 15/12 Q1008
EGTC 270620Z 09007KT 9999 SCT042 15/12 Q1009